»·PEaware :: N373EB KSMX-KWHP

N373EB :: KSMX-KWHP

FLIGHT INFORMATION

Flight Status: Arrived
Operator: Privately registered:
United States
More flights under this callsign
Pilot: Peder R. (40111)
Aircraft: BEECH AIRCRAFT DEBONAIR BONANZA
(BE33)
More flights by this aircraft type
Origin: KSMX Santa Maria Pub/Capt Hancock
United States
Destination: KWHP Whiteman
United States
More flights between these airports :: More routes between these airports
Route: BUELT4 RZS V186 FIM
File this flight plan on PilotEdge
Remarks:
Altitude:
(Current/Filed)
7,000ft
Speed:
(Current/Filed)
155kts
Departed: 21-Sep-23 01:28 PM
Arrived: 21-Sep-23 02:23 PM
Distance/Time
Traveled:
108nm/0:55
Distance/Time
To Go:
Arrived

Flight Plot

Page will automatically refresh every two minutes.

Flight plan parsing failed; only flown route is shown


Map Options




Map Legend


Flown Route
Filed Route
Departure Airport
Arrival Airport
Navaid (VOR, NDB)
Fix

Horizontal Profiles

Position Reports

Time Latitude Longitude Heading Altitude Ground
Speed
21-Sep-23 13:03 34.896551 -120.445695 314 264ft 0kts
21-Sep-23 13:04 34.896551 -120.445695 314 264ft 0kts
21-Sep-23 13:05 34.896551 -120.445695 314 264ft 0kts
21-Sep-23 13:06 34.896551 -120.445695 314 264ft 0kts
21-Sep-23 13:07 34.896551 -120.445695 314 264ft 0kts
21-Sep-23 13:08 34.896551 -120.445695 314 264ft 0kts
21-Sep-23 13:09 34.896551 -120.445695 314 264ft 0kts
21-Sep-23 13:10 34.896551 -120.445695 314 264ft 0kts
21-Sep-23 13:11 34.896551 -120.445695 314 264ft 0kts
21-Sep-23 13:12 34.896551 -120.445695 314 264ft 0kts
21-Sep-23 13:13 34.896551 -120.445695 314 264ft 0kts
21-Sep-23 13:14 34.896593 -120.445750 311 264ft 1kts
21-Sep-23 13:15 34.895732 -120.445567 137 264ft 8kts
21-Sep-23 13:16 34.894788 -120.445159 220 264ft 7kts
21-Sep-23 13:20 34.893874 -120.444899 239 264ft 0kts
21-Sep-23 13:21 34.893626 -120.445173 190 264ft 0kts
21-Sep-23 13:26 34.892792 -120.445804 287 264ft 4kts
21-Sep-23 13:27 34.903773 -120.458552 299 397ft 97kts
21-Sep-23 13:28 34.928245 -120.466250 48 1371ft 119kts
21-Sep-23 13:29 34.916699 -120.440166 183 2165ft 99kts
21-Sep-23 13:30 34.890924 -120.452094 205 2993ft 97kts
21-Sep-23 13:31 34.865536 -120.455484 138 3814ft 106kts
21-Sep-23 13:32 34.843194 -120.431836 145 4544ft 120kts
21-Sep-23 13:33 34.812757 -120.409314 138 5303ft 125kts
21-Sep-23 13:34 34.784606 -120.386358 144 6068ft 125kts
21-Sep-23 13:35 34.755595 -120.363047 138 6828ft 122kts
21-Sep-23 13:36 34.724480 -120.336251 139 7034ft 153kts
21-Sep-23 13:37 34.686939 -120.305829 141 7038ft 161kts
21-Sep-23 13:38 34.650725 -120.271932 123 6996ft 158kts
21-Sep-23 13:39 34.635246 -120.222439 99 7002ft 152kts
21-Sep-23 13:40 34.622990 -120.172480 107 7051ft 154kts
21-Sep-23 13:41 34.609024 -120.122801 109 7079ft 154kts
21-Sep-23 13:42 34.594570 -120.072647 104 7058ft 154kts
21-Sep-23 13:43 34.580140 -120.022214 103 7051ft 154kts
21-Sep-23 13:44 34.565928 -119.971777 108 7007ft 158kts
21-Sep-23 13:45 34.550762 -119.920504 99 6966ft 160kts
21-Sep-23 13:46 34.537425 -119.868340 111 7045ft 157kts
21-Sep-23 13:47 34.525173 -119.818646 112 7107ft 149kts
21-Sep-23 13:48 34.508129 -119.772064 114 7053ft 150kts
21-Sep-23 13:49 34.485868 -119.728674 122 6996ft 150kts
21-Sep-23 13:50 34.462688 -119.686051 123 6981ft 148kts
21-Sep-23 13:51 34.439769 -119.644274 123 6993ft 147kts
21-Sep-23 13:52 34.416929 -119.602053 123 7016ft 147kts
21-Sep-23 13:53 34.394170 -119.560237 122 7033ft 147kts
21-Sep-23 13:54 34.371716 -119.518111 123 7048ft 147kts
21-Sep-23 13:55 34.349051 -119.476194 123 7053ft 147kts
21-Sep-23 13:56 34.323510 -119.432399 123 6932ft 165kts
21-Sep-23 13:57 34.318928 -119.381376 87 7083ft 155kts
21-Sep-23 13:58 34.323272 -119.328704 87 7042ft 156kts
21-Sep-23 13:59 34.327273 -119.276101 87 7014ft 154kts
21-Sep-23 14:00 34.331932 -119.223806 88 6975ft 154kts
21-Sep-23 14:01 34.335279 -119.171748 88 6970ft 152kts
21-Sep-23 14:02 34.339316 -119.120650 88 7011ft 151kts
21-Sep-23 14:03 34.343803 -119.069504 89 7054ft 150kts
21-Sep-23 14:04 34.346748 -119.019584 91 6983ft 136kts
21-Sep-23 14:05 34.350698 -118.971788 90 6332ft 134kts
21-Sep-23 14:06 34.354047 -118.929420 89 6317ft 119kts
21-Sep-23 14:07 34.356815 -118.890148 90 6334ft 114kts
21-Sep-23 14:08 34.360263 -118.851139 88 5956ft 118kts
21-Sep-23 14:09 34.364310 -118.811615 89 5583ft 118kts
21-Sep-23 14:10 34.368595 -118.771541 91 5195ft 122kts
21-Sep-23 14:11 34.372822 -118.731495 89 5019ft 116kts
21-Sep-23 14:12 34.376594 -118.692117 85 4970ft 117kts
21-Sep-23 14:13 34.379695 -118.653397 73 5035ft 105kts
21-Sep-23 14:14 34.376206 -118.618688 123 4791ft 114kts
21-Sep-23 14:15 34.357864 -118.588354 118 4707ft 109kts
21-Sep-23 14:16 34.341057 -118.557902 121 4527ft 107kts
21-Sep-23 14:17 34.325323 -118.528306 120 4072ft 102kts
21-Sep-23 14:18 34.309638 -118.499514 119 3464ft 102kts
21-Sep-23 14:19 34.298658 -118.469337 91 2789ft 89kts
21-Sep-23 14:20 34.288512 -118.444591 132 2038ft 84kts
21-Sep-23 14:21 34.271294 -118.426218 131 1376ft 75kts
21-Sep-23 14:22 34.258453 -118.412629 134 987ft 18kts
21-Sep-23 14:23 34.258013 -118.411479 348 983ft 0kts
21-Sep-23 14:24 34.259324 -118.412820 320 991ft 4kts

Navigation Log

Ident Type
Flight plan parsing failed, navigation log unavailable